createdAt,value
2019-04-11T00:02:00.398Z,2.70
2019-04-11T00:04:28.581Z,2.80
2019-04-11T00:06:56.584Z,2.77
2019-04-11T00:09:24.953Z,2.70
2019-04-11T00:11:53.017Z,2.90
2019-04-11T00:14:22.096Z,3.45
2019-04-11T00:16:50.373Z,2.60
2019-04-11T00:19:19.073Z,2.35
2019-04-11T00:21:47.270Z,3.37
2019-04-11T00:24:15.499Z,2.85
2019-04-11T00:26:44.436Z,2.77
2019-04-11T00:29:12.487Z,2.65
2019-04-11T00:31:41.110Z,2.70
2019-04-11T00:34:09.197Z,2.80
2019-04-11T00:36:37.341Z,2.60
2019-04-11T00:39:08.089Z,2.67
2019-04-11T00:41:36.099Z,2.70
2019-04-11T00:44:04.513Z,2.55
2019-04-11T00:46:32.564Z,2.58
2019-04-11T00:49:01.890Z,2.45
2019-04-11T00:51:30.010Z,3.15
2019-04-11T00:53:58.348Z,2.55
2019-04-11T00:56:26.372Z,2.83
2019-04-11T00:58:54.378Z,2.70
2019-04-11T01:01:22.506Z,2.70
2019-04-11T01:03:51.503Z,3.10
2019-04-11T01:06:20.441Z,2.90
2019-04-11T01:08:48.517Z,2.85
2019-04-11T01:11:16.541Z,2.60
2019-04-11T01:13:50.901Z,2.58
2019-04-11T01:16:34.867Z,2.92
2019-04-11T01:19:02.953Z,2.75
2019-04-11T01:21:30.952Z,2.60
2019-04-11T01:23:59.613Z,2.70
2019-04-11T01:26:28.255Z,2.50
2019-04-11T01:28:56.293Z,2.60
2019-04-11T01:31:27.178Z,2.80
2019-04-11T01:33:56.049Z,3.20
2019-04-11T01:36:24.098Z,2.80
2019-04-11T01:38:56.821Z,3.35
2019-04-11T01:41:25.251Z,3.05
2019-04-11T01:43:59.294Z,2.47
2019-04-11T01:46:24.313Z,3.83
2019-04-11T01:49:12.239Z,3.20
2019-04-11T01:51:40.358Z,4.67
2019-04-11T01:54:08.389Z,3.52
2019-04-11T01:56:37.033Z,2.58
2019-04-11T01:59:05.105Z,3.12
2019-04-11T02:01:52.797Z,2.77
2019-04-11T02:04:32.483Z,2.67
2019-04-11T02:07:00.498Z,2.50
2019-04-11T02:09:28.648Z,3.00
2019-04-11T02:11:58.118Z,4.03
2019-04-11T02:14:26.513Z,2.47
2019-04-11T02:16:54.553Z,2.70
2019-04-11T02:19:23.780Z,2.67
2019-04-11T02:21:53.808Z,2.50
2019-04-11T02:24:36.319Z,2.70
2019-04-11T02:27:24.438Z,2.60
2019-04-11T02:29:53.080Z,2.50
2019-04-11T02:32:24.633Z,3.05
2019-04-11T02:34:54.602Z,3.00
2019-04-11T02:37:21.912Z,2.90
2019-04-11T02:39:51.599Z,2.45
2019-04-11T02:42:21.388Z,2.70
2019-04-11T02:45:07.637Z,2.90
2019-04-11T02:47:24.303Z,2.85
2019-04-11T02:49:49.622Z,2.65
2019-04-11T02:52:19.132Z,2.77
2019-04-11T02:54:49.211Z,2.60
2019-04-11T02:57:18.333Z,2.55
2019-04-11T02:59:48.786Z,2.50
2019-04-11T03:02:19.027Z,2.62
2019-04-11T03:04:47.651Z,2.75
2019-04-11T03:07:16.556Z,2.75
2019-04-11T03:09:46.822Z,2.67
2019-04-11T03:12:15.524Z,3.35
2019-04-11T03:15:01.916Z,3.05
2019-04-11T03:17:20.711Z,2.58
2019-04-11T03:19:57.910Z,2.17
2019-04-11T03:22:14.064Z,2.40
2019-04-11T03:24:42.990Z,2.47
2019-04-11T03:27:12.100Z,2.20
2019-04-11T03:29:40.849Z,3.55
2019-04-11T03:32:51.960Z,2.62
2019-04-11T03:35:27.019Z,2.70
2019-04-11T03:37:39.246Z,2.40
2019-04-11T03:39:59.554Z,2.83
2019-04-11T03:42:22.158Z,2.42
2019-04-11T03:44:44.353Z,2.55
2019-04-11T03:47:20.447Z,2.58
2019-04-11T03:49:44.929Z,2.75
2019-04-11T03:52:08.702Z,2.70
2019-04-11T03:54:38.885Z,2.77
2019-04-11T03:57:07.820Z,2.60
2019-04-11T03:59:38.430Z,2.40
2019-04-11T04:02:07.692Z,2.67
2019-04-11T04:04:37.078Z,2.70
2019-04-11T04:07:06.780Z,2.55
2019-04-11T04:09:35.264Z,2.67
2019-04-11T04:12:04.949Z,2.62
2019-04-11T04:14:39.265Z,3.85
2019-04-11T04:17:32.971Z,2.45
2019-04-11T04:20:39.504Z,2.50
2019-04-11T04:23:20.929Z,3.00
2019-04-11T04:25:49.424Z,3.77
2019-04-11T04:28:19.093Z,3.02
2019-04-11T04:30:47.275Z,2.83
2019-04-11T04:33:17.057Z,3.62
2019-04-11T04:35:45.148Z,2.70
2019-04-11T04:38:13.686Z,2.55
2019-04-11T04:40:58.423Z,3.37
2019-04-11T04:43:14.477Z,3.05
2019-04-11T04:46:06.636Z,2.95
2019-04-11T04:48:16.657Z,3.37
2019-04-11T04:50:42.344Z,3.20
2019-04-11T04:53:10.380Z,2.98
2019-04-11T04:55:38.795Z,2.75
2019-04-11T04:58:07.250Z,3.20
2019-04-11T05:00:37.476Z,2.90
2019-04-11T05:03:06.001Z,2.85
2019-04-11T05:05:35.793Z,3.15
2019-04-11T05:08:03.969Z,2.70
2019-04-11T05:10:32.750Z,2.80
2019-04-11T05:13:01.030Z,3.17
2019-04-11T05:15:29.046Z,2.62
2019-04-11T05:17:57.726Z,3.00
2019-04-11T05:20:25.933Z,3.15
2019-04-11T05:22:54.004Z,3.20
2019-04-11T05:25:22.288Z,3.42
2019-04-11T05:27:50.317Z,2.98
2019-04-11T05:30:18.796Z,3.65
2019-04-11T05:32:47.195Z,3.12
2019-04-11T05:35:16.473Z,3.08
2019-04-11T05:37:45.123Z,5.70
2019-04-11T05:40:13.411Z,5.50
2019-04-11T05:42:41.764Z,6.25
2019-04-11T05:45:16.953Z,4.42
2019-04-11T05:47:39.543Z,3.25
2019-04-11T05:50:36.121Z,4.92
2019-04-11T05:53:05.596Z,4.50
2019-04-11T05:55:41.384Z,3.33
2019-04-11T05:58:12.810Z,5.08
2019-04-11T06:00:57.853Z,5.12
2019-04-11T06:03:26.082Z,5.33
2019-04-11T06:06:13.053Z,4.80
2019-04-11T06:08:42.085Z,3.92
2019-04-11T06:11:37.666Z,4.15
2019-04-11T06:14:11.626Z,7.35
2019-04-11T06:16:47.283Z,5.62
2019-04-11T06:19:30.555Z,5.80
2019-04-11T06:22:01.744Z,6.08
2019-04-11T06:24:48.523Z,7.33
2019-04-11T06:27:36.765Z,7.10
2019-04-11T06:30:26.890Z,22.05
2019-04-11T06:33:20.630Z,12.40
2019-04-11T06:36:16.590Z,15.58
2019-04-11T06:38:49.268Z,14.45
2019-04-11T06:41:45.050Z,9.25
2019-04-11T06:44:21.633Z,9.93
2019-04-11T06:47:14.534Z,10.03
2019-04-11T06:50:02.779Z,9.55
2019-04-11T06:52:31.182Z,8.58
2019-04-11T06:55:13.298Z,6.15
2019-04-11T06:57:42.420Z,6.10
2019-04-11T07:00:10.551Z,5.75
2019-04-11T07:02:41.256Z,4.80
2019-04-11T07:05:10.655Z,6.28
2019-04-11T07:07:39.480Z,4.60
2019-04-11T07:10:09.552Z,8.80
2019-04-11T07:12:57.621Z,5.90
2019-04-11T07:15:29.396Z,3.25
2019-04-11T07:18:15.197Z,8.63
2019-04-11T07:21:02.911Z,6.75
2019-04-11T07:23:49.118Z,6.90
2019-04-11T07:26:52.172Z,7.25
2019-04-11T07:29:42.192Z,7.97
2019-04-11T07:32:18.087Z,4.62
2019-04-11T07:35:22.978Z,5.42
2019-04-11T07:37:53.420Z,6.28
2019-04-11T07:40:39.499Z,4.25
2019-04-11T07:43:13.930Z,7.25
2019-04-11T07:45:58.946Z,5.90
2019-04-11T07:48:30.728Z,4.45
2019-04-11T07:51:08.922Z,7.30
2019-04-11T07:53:39.546Z,4.42
2019-04-11T07:56:07.805Z,5.83
2019-04-11T07:58:45.566Z,6.22
2019-04-11T08:01:27.106Z,4.08
2019-04-11T08:04:32.277Z,4.70
2019-04-11T08:07:22.168Z,5.40
2019-04-11T08:09:57.163Z,4.42
2019-04-11T08:12:28.260Z,3.77
2019-04-11T08:15:29.302Z,5.65
2019-04-11T08:17:59.827Z,4.22
2019-04-11T08:20:45.719Z,4.35
2019-04-11T08:23:14.136Z,3.72
2019-04-11T08:25:59.939Z,3.65
2019-04-11T08:28:28.985Z,4.42
2019-04-11T08:31:30.779Z,4.33
2019-04-11T08:34:02.703Z,3.20
2019-04-11T08:36:48.950Z,3.52
2019-04-11T08:39:24.807Z,3.10
2019-04-11T08:42:23.488Z,3.58
2019-04-11T08:44:52.194Z,3.80
2019-04-11T08:47:21.471Z,3.83
2019-04-11T08:49:56.979Z,3.58
2019-04-11T08:52:42.623Z,4.08
2019-04-11T08:55:17.136Z,3.00
2019-04-11T08:57:47.755Z,2.85
2019-04-11T09:00:43.740Z,3.17
2019-04-11T09:03:22.250Z,2.98
2019-04-11T09:06:04.369Z,3.37
2019-04-11T09:09:00.350Z,4.20
2019-04-11T09:11:47.136Z,2.85
2019-04-11T09:14:33.939Z,4.15
2019-04-11T09:17:21.511Z,3.00
2019-04-11T09:20:07.592Z,2.55
2019-04-11T09:22:41.510Z,3.17
2019-04-11T09:25:28.942Z,2.77
2019-04-11T09:28:19.644Z,2.58
2019-04-11T09:31:01.213Z,2.37
2019-04-11T09:33:51.039Z,2.75
2019-04-11T09:36:40.959Z,2.72
2019-04-11T09:39:19.258Z,2.80
2019-04-11T09:42:10.497Z,2.58
2019-04-11T09:44:55.171Z,3.60
2019-04-11T09:47:45.654Z,2.25
2019-04-11T09:50:20.398Z,4.37
2019-04-11T09:52:49.548Z,2.95
2019-04-11T09:55:25.525Z,2.55
2019-04-11T09:57:58.629Z,4.53
2019-04-11T10:00:57.384Z,2.95
2019-04-11T10:03:27.969Z,2.42
2019-04-11T10:06:16.888Z,3.83
2019-04-11T10:08:49.144Z,2.40
2019-04-11T10:11:42.606Z,3.15
2019-04-11T10:14:19.569Z,2.05
2019-04-11T10:17:06.658Z,2.22
2019-04-11T10:19:54.209Z,2.98
2019-04-11T10:22:41.271Z,2.20
2019-04-11T10:25:32.109Z,2.83
2019-04-11T10:28:29.550Z,2.37
2019-04-11T10:31:06.629Z,2.50
2019-04-11T10:33:59.634Z,3.50
2019-04-11T10:36:49.669Z,2.00
2019-04-11T10:39:54.900Z,2.10
2019-04-11T10:42:22.914Z,3.08
2019-04-11T10:45:02.589Z,2.22
2019-04-11T10:47:33.270Z,3.95
2019-04-11T10:50:15.829Z,2.67
2019-04-11T10:52:48.756Z,3.05
2019-04-11T10:55:23.489Z,2.17
2019-04-11T10:58:02.639Z,2.70
2019-04-11T11:00:45.246Z,2.33
2019-04-11T11:03:20.358Z,3.47
2019-04-11T11:05:51.402Z,2.50
2019-04-11T11:08:41.621Z,2.50
2019-04-11T11:11:15.896Z,2.65
2019-04-11T11:14:02.335Z,2.80
2019-04-11T11:16:40.316Z,2.40
2019-04-11T11:19:40.404Z,2.87
2019-04-11T11:22:00.004Z,3.83
2019-04-11T11:24:52.455Z,2.42
2019-04-11T11:27:22.326Z,2.27
2019-04-11T11:30:09.175Z,2.20
2019-04-11T11:32:41.133Z,2.42
2019-04-11T11:35:29.572Z,2.98
2019-04-11T11:38:01.931Z,2.42
2019-04-11T11:40:47.956Z,3.85
2019-04-11T11:43:45.406Z,2.70
2019-04-11T11:46:32.252Z,3.37
2019-04-11T11:49:32.517Z,2.60
2019-04-11T11:52:11.268Z,2.85
2019-04-11T11:54:43.983Z,2.30
2019-04-11T11:57:20.437Z,2.35
2019-04-11T11:59:52.397Z,2.65
2019-04-11T12:02:26.354Z,2.20
2019-04-11T12:05:20.519Z,3.80
2019-04-11T12:07:58.074Z,2.77
2019-04-11T12:10:37.491Z,2.02
2019-04-11T12:13:23.143Z,1.70
2019-04-11T12:16:16.086Z,1.80
2019-04-11T12:19:02.532Z,2.02
2019-04-11T12:21:32.760Z,2.40
2019-04-11T12:24:32.354Z,2.80
2019-04-11T12:27:18.427Z,2.17
2019-04-11T12:30:11.368Z,2.50
2019-04-11T12:32:57.608Z,2.67
2019-04-11T12:35:58.930Z,2.08
2019-04-11T12:38:40.432Z,2.35
2019-04-11T12:41:33.024Z,2.35
2019-04-11T12:44:29.511Z,2.10
2019-04-11T12:47:09.392Z,2.17
2019-04-11T12:50:02.022Z,2.17
2019-04-11T12:52:38.252Z,3.17
2019-04-11T12:55:06.666Z,2.00
2019-04-11T12:58:05.728Z,2.90
2019-04-11T13:01:00.561Z,3.02
2019-04-11T13:03:47.361Z,2.30
2019-04-11T13:06:21.207Z,2.33
2019-04-11T13:09:06.650Z,2.35
2019-04-11T13:11:35.441Z,2.10
2019-04-11T13:14:12.220Z,2.95
2019-04-11T13:16:41.497Z,2.00
2019-04-11T13:19:31.398Z,2.15
2019-04-11T13:22:02.953Z,2.12
2019-04-11T13:24:48.128Z,2.27
2019-04-11T13:27:28.219Z,2.22
2019-04-11T13:30:14.988Z,2.12
2019-04-11T13:32:54.529Z,3.30
2019-04-11T13:35:44.462Z,3.42
2019-04-11T13:38:32.584Z,2.55
2019-04-11T13:41:20.344Z,3.60
2019-04-11T13:44:09.716Z,2.50
2019-04-11T13:46:55.999Z,3.77
2019-04-11T13:49:42.802Z,2.42
2019-04-11T13:52:29.618Z,3.12
2019-04-11T13:55:28.692Z,3.25
2019-04-11T13:58:14.462Z,2.30
2019-04-11T14:00:52.527Z,2.20
2019-04-11T14:03:39.298Z,2.20
2019-04-11T14:06:13.697Z,2.80
2019-04-11T14:08:53.991Z,2.75
2019-04-11T14:11:22.525Z,2.20
2019-04-11T14:13:50.675Z,3.10
2019-04-11T14:16:21.203Z,2.35
2019-04-11T14:19:07.094Z,2.17
2019-04-11T14:21:35.320Z,2.40
2019-04-11T14:24:22.570Z,2.10
2019-04-11T14:26:52.622Z,2.00
2019-04-11T14:29:53.815Z,2.10
2019-04-11T14:32:30.265Z,2.10
2019-04-11T14:35:15.289Z,2.47
2019-04-11T14:37:58.093Z,2.02
2019-04-11T14:41:02.885Z,2.20
2019-04-11T14:43:33.531Z,2.58
2019-04-11T14:46:23.328Z,3.05
2019-04-11T14:48:56.749Z,1.98
2019-04-11T14:51:58.991Z,2.20
2019-04-11T14:54:48.879Z,2.17
2019-04-11T14:57:33.544Z,2.10
2019-04-11T15:00:15.794Z,2.25
2019-04-11T15:03:05.366Z,2.30
2019-04-11T15:05:52.346Z,2.37
2019-04-11T15:08:29.872Z,2.17
2019-04-11T15:11:12.586Z,2.30
2019-04-11T15:13:41.702Z,2.02
2019-04-11T15:16:28.484Z,1.92
2019-04-11T15:19:00.019Z,1.90
2019-04-11T15:21:45.407Z,2.05
2019-04-11T15:24:14.330Z,2.33
2019-04-11T15:26:57.629Z,3.00
2019-04-11T15:29:31.369Z,2.22
2019-04-11T15:32:21.331Z,3.10
2019-04-11T15:34:53.036Z,3.72
2019-04-11T15:37:46.107Z,3.42
2019-04-11T15:40:28.829Z,4.83
2019-04-11T15:43:14.235Z,3.08
2019-04-11T15:46:14.728Z,3.42
2019-04-11T15:49:02.235Z,2.83
2019-04-11T15:51:35.875Z,3.20
2019-04-11T15:54:28.592Z,3.90
2019-04-11T15:57:02.616Z,2.92
2019-04-11T15:59:55.235Z,3.58
2019-04-11T16:02:54.013Z,3.25
2019-04-11T16:05:49.916Z,4.97
2019-04-11T16:08:38.765Z,3.05
2019-04-11T16:11:26.918Z,3.20
2019-04-11T16:14:26.168Z,3.05
2019-04-11T16:17:22.069Z,3.58
2019-04-11T16:19:55.260Z,3.17
2019-04-11T16:22:43.034Z,3.58
2019-04-11T16:25:18.727Z,3.70
2019-04-11T16:28:08.559Z,2.70
2019-04-11T16:30:39.818Z,2.65
2019-04-11T16:33:46.106Z,2.27
2019-04-11T16:36:45.726Z,2.47
2019-04-11T16:39:38.449Z,2.25
2019-04-11T16:42:09.799Z,2.52
2019-04-11T16:44:56.594Z,2.40
2019-04-11T16:47:49.141Z,2.08
2019-04-11T16:50:17.248Z,2.37
2019-04-11T16:52:45.587Z,2.60
2019-04-11T16:55:13.675Z,3.33
2019-04-11T16:57:44.231Z,3.00
2019-04-11T17:00:12.047Z,4.75
2019-04-11T17:02:40.173Z,5.47
2019-04-11T17:05:08.218Z,3.98
2019-04-11T17:07:56.113Z,4.45
2019-04-11T17:10:42.387Z,3.33
2019-04-11T17:13:10.622Z,3.37
2019-04-11T17:15:38.699Z,4.62
2019-04-11T17:18:06.808Z,4.65
2019-04-11T17:20:36.176Z,4.20
2019-04-11T17:23:04.758Z,3.42
2019-04-11T17:25:32.791Z,5.30
2019-04-11T17:28:00.879Z,3.98
2019-04-11T17:30:29.105Z,4.83
2019-04-11T17:32:57.146Z,4.42
2019-04-11T17:35:25.267Z,3.87
2019-04-11T17:37:53.288Z,4.90
2019-04-11T17:40:21.366Z,3.05
2019-04-11T17:42:49.420Z,2.40
2019-04-11T17:45:17.650Z,2.30
2019-04-11T17:47:45.871Z,3.20
2019-04-11T17:50:13.945Z,3.30
2019-04-11T17:52:42.036Z,3.10
2019-04-11T17:55:10.073Z,3.30
2019-04-11T17:57:38.130Z,2.55
2019-04-11T18:00:07.822Z,2.90
2019-04-11T18:02:35.926Z,2.72
2019-04-11T18:05:03.997Z,2.77
2019-04-11T18:07:32.197Z,3.62
2019-04-11T18:10:00.225Z,2.90
2019-04-11T18:12:28.450Z,2.95
2019-04-11T18:14:56.521Z,4.50
2019-04-11T18:17:24.835Z,3.67
2019-04-11T18:19:52.923Z,3.00
2019-04-11T18:22:20.975Z,2.92
2019-04-11T18:24:50.106Z,5.03
2019-04-11T18:27:21.551Z,3.92
2019-04-11T18:29:52.593Z,2.50
2019-04-11T18:32:18.692Z,3.27
2019-04-11T18:34:46.756Z,2.77
2019-04-11T18:37:14.858Z,2.77
2019-04-11T18:39:43.019Z,2.47
2019-04-11T18:42:11.053Z,2.60
2019-04-11T18:44:39.126Z,2.67
2019-04-11T18:47:07.268Z,3.62
2019-04-11T18:49:35.311Z,13.22
2019-04-11T18:52:03.448Z,6.50
2019-04-11T18:54:31.482Z,4.70
2019-04-11T18:56:59.523Z,7.75
2019-04-11T18:59:27.641Z,4.53
2019-04-11T19:01:55.819Z,4.95
2019-04-11T19:04:32.379Z,6.62
2019-04-11T19:06:53.963Z,5.80
2019-04-11T19:09:22.199Z,4.70
2019-04-11T19:11:51.540Z,5.12
2019-04-11T19:14:19.558Z,5.08
2019-04-11T19:16:47.604Z,5.37
2019-04-11T19:19:18.014Z,4.20
2019-04-11T19:21:45.490Z,4.33
2019-04-11T19:24:13.571Z,3.58
2019-04-11T19:26:45.842Z,3.95
2019-04-11T19:29:11.444Z,4.00
2019-04-11T19:31:39.465Z,4.62
2019-04-11T19:34:08.825Z,3.50
2019-04-11T19:36:37.136Z,4.87
2019-04-11T19:39:06.281Z,4.80
2019-04-11T19:41:34.345Z,4.35
2019-04-11T19:44:02.483Z,5.45
2019-04-11T19:46:30.489Z,6.42
2019-04-11T19:48:59.504Z,8.10
2019-04-11T19:51:29.086Z,4.45
2019-04-11T19:53:57.719Z,4.65
2019-04-11T19:56:35.953Z,4.37
2019-04-11T19:59:04.178Z,4.67
2019-04-11T20:01:32.237Z,5.55
2019-04-11T20:04:00.375Z,4.40
2019-04-11T20:06:28.427Z,6.60
2019-04-11T20:08:56.492Z,4.75
2019-04-11T20:14:12.091Z,5.17
2019-04-11T20:16:42.781Z,5.15
2019-04-11T20:19:10.034Z,4.92
2019-04-11T20:21:38.937Z,4.17
2019-04-11T20:24:07.064Z,4.55
2019-04-11T20:26:35.206Z,4.60
2019-04-11T20:29:03.601Z,5.83
2019-04-11T20:31:31.740Z,4.60
2019-04-11T20:34:01.564Z,4.42
2019-04-11T20:36:33.540Z,4.40
2019-04-11T20:38:59.388Z,4.53
2019-04-11T20:41:27.536Z,4.37
2019-04-11T20:43:56.927Z,4.10
2019-04-11T20:46:29.149Z,5.00
2019-04-11T20:48:56.901Z,4.05
2019-04-11T20:51:25.004Z,4.33
2019-04-11T20:53:53.106Z,4.10
2019-04-11T20:56:24.498Z,4.20
2019-04-11T20:58:50.965Z,4.42
2019-04-11T21:01:19.065Z,4.20
2019-04-11T21:03:47.079Z,4.45
2019-04-11T21:06:15.213Z,4.50
2019-04-11T21:08:43.296Z,4.55
2019-04-11T21:11:11.356Z,4.20
2019-04-11T21:13:39.366Z,4.53
2019-04-11T21:16:07.458Z,4.55
2019-04-11T21:18:35.496Z,4.30
2019-04-11T21:21:03.506Z,4.47
2019-04-11T21:23:31.690Z,4.60
2019-04-11T21:25:59.833Z,4.70
2019-04-11T21:28:30.286Z,5.17
2019-04-11T21:30:59.859Z,3.87
2019-04-11T21:33:27.545Z,14.63
2019-04-11T21:35:55.592Z,35.85
2019-04-11T21:38:23.647Z,8.55
2019-04-11T21:40:51.698Z,15.98
2019-04-11T21:43:20.991Z,5.47
2019-04-11T21:45:49.241Z,8.23
2019-04-11T21:48:17.480Z,11.50
2019-04-11T21:50:45.691Z,7.28
2019-04-11T21:53:14.334Z,5.42
2019-04-11T21:55:47.177Z,3.77
2019-04-11T21:58:12.920Z,3.83
2019-04-11T22:00:42.889Z,3.90
2019-04-11T22:03:10.968Z,4.28
2019-04-11T22:05:38.990Z,3.67
2019-04-11T22:08:07.294Z,3.30
2019-04-11T22:10:40.072Z,4.10
2019-04-11T22:13:05.433Z,4.45
2019-04-11T22:15:35.652Z,8.10
2019-04-11T22:18:03.893Z,3.52
2019-04-11T22:20:31.997Z,5.80
2019-04-11T22:23:00.067Z,6.92
2019-04-11T22:25:28.127Z,4.97
2019-04-11T22:27:56.193Z,3.40
2019-04-11T22:30:25.293Z,4.83
2019-04-11T22:32:58.447Z,3.20
2019-04-11T22:35:29.058Z,3.70
2019-04-11T22:37:59.652Z,3.35
2019-04-11T22:40:26.436Z,3.10
2019-04-11T22:42:54.494Z,3.40
2019-04-11T22:45:25.656Z,3.72
2019-04-11T22:47:53.643Z,3.40
2019-04-11T22:50:21.730Z,3.37
2019-04-11T22:52:49.970Z,3.62
2019-04-11T22:55:17.976Z,2.90
2019-04-11T22:57:46.046Z,3.62
2019-04-11T23:00:15.232Z,3.27
2019-04-11T23:03:05.910Z,3.30
2019-04-11T23:05:34.028Z,3.60
2019-04-11T23:08:02.902Z,3.55
2019-04-11T23:10:31.144Z,3.55
2019-04-11T23:12:59.288Z,3.27
2019-04-11T23:15:27.318Z,3.42
2019-04-11T23:17:55.398Z,3.50
2019-04-11T23:20:23.450Z,3.50
2019-04-11T23:22:51.470Z,3.45
2019-04-11T23:25:19.610Z,3.47
2019-04-11T23:27:48.002Z,3.10
2019-04-11T23:30:18.405Z,2.87
2019-04-11T23:32:46.437Z,3.10
2019-04-11T23:35:14.465Z,3.55
2019-04-11T23:37:52.349Z,4.40
2019-04-11T23:40:21.006Z,3.50
2019-04-11T23:42:50.095Z,3.52
2019-04-11T23:45:21.417Z,3.50
2019-04-11T23:47:53.241Z,3.40
2019-04-11T23:50:19.203Z,3.67
2019-04-11T23:52:47.269Z,3.60
2019-04-11T23:55:15.491Z,3.50
2019-04-11T23:57:43.515Z,3.58
